createdAt,value
2018-06-02T00:01:14.708Z,35.58
2018-06-02T00:03:44.136Z,32.50
2018-06-02T00:06:12.439Z,33.22
2018-06-02T00:08:41.459Z,32.75
2018-06-02T00:11:10.671Z,30.08
2018-06-02T00:13:38.967Z,29.30
2018-06-02T00:16:07.283Z,29.10
2018-06-02T00:18:36.313Z,28.15
2018-06-02T00:21:04.637Z,28.00
2018-06-02T00:23:32.913Z,25.70
2018-06-02T00:26:01.167Z,25.60
2018-06-02T00:28:29.443Z,26.58
2018-06-02T00:30:57.728Z,25.70
2018-06-02T00:33:26.122Z,25.77
2018-06-02T00:35:55.208Z,25.20
2018-06-02T00:38:24.383Z,24.83
2018-06-02T00:40:52.631Z,24.27
2018-06-02T00:43:20.935Z,24.52
2018-06-02T00:45:49.210Z,28.58
2018-06-02T00:48:17.477Z,34.30
2018-06-02T00:50:48.640Z,33.28
2018-06-02T00:53:16.896Z,35.03
2018-06-02T00:55:46.760Z,37.20
2018-06-02T00:58:17.003Z,33.92
2018-06-02T01:00:46.076Z,35.17
2018-06-02T01:03:14.345Z,38.58
2018-06-02T01:05:42.604Z,36.42
2018-06-02T01:08:10.888Z,40.67
2018-06-02T01:10:40.148Z,40.15
2018-06-02T01:13:08.433Z,42.00
2018-06-02T01:15:36.749Z,44.83
2018-06-02T01:18:05.134Z,44.75
2018-06-02T01:20:34.695Z,47.05
2018-06-02T01:25:36.143Z,49.30
2018-06-02T01:28:04.543Z,52.72
2018-06-02T01:30:33.995Z,52.33
2018-06-02T01:33:02.259Z,50.22
2018-06-02T01:35:31.459Z,52.28
2018-06-02T01:37:59.742Z,54.97
2018-06-02T01:40:28.065Z,54.22
2018-06-02T01:42:57.494Z,52.03
2018-06-02T01:45:25.814Z,53.45
2018-06-02T01:47:54.991Z,53.00
2018-06-02T01:50:24.020Z,52.70
2018-06-02T01:52:53.170Z,55.40
2018-06-02T01:55:21.455Z,50.65
2018-06-02T01:57:50.830Z,57.70
2018-06-02T02:00:19.133Z,62.03
2018-06-02T02:02:47.373Z,55.17
2018-06-02T02:05:15.620Z,60.70
2018-06-02T02:07:43.934Z,62.10
2018-06-02T02:10:13.403Z,63.00
2018-06-02T02:12:43.294Z,59.50
2018-06-02T02:15:11.594Z,63.08
2018-06-02T02:17:43.632Z,66.47
2018-06-02T02:20:11.942Z,65.95
2018-06-02T02:22:40.193Z,73.97
2018-06-02T02:25:09.271Z,83.72
2018-06-02T02:27:37.549Z,73.50
2018-06-02T02:30:06.601Z,79.40
2018-06-02T02:32:34.881Z,75.03
2018-06-02T02:35:03.157Z,79.20
2018-06-02T02:37:31.442Z,81.50
2018-06-02T02:40:00.923Z,87.27
2018-06-02T02:42:29.937Z,82.62
2018-06-02T02:44:58.215Z,83.57
2018-06-02T02:47:26.497Z,87.88
2018-06-02T02:49:54.813Z,82.47
2018-06-02T02:52:23.860Z,81.37
2018-06-02T02:54:52.236Z,89.37
2018-06-02T02:57:20.509Z,90.20
2018-06-02T02:59:48.817Z,91.70
2018-06-02T03:02:17.218Z,81.53
2018-06-02T03:04:47.516Z,88.78
2018-06-02T03:07:15.745Z,81.78
2018-06-02T03:09:45.066Z,87.32
2018-06-02T03:12:13.309Z,86.18
2018-06-02T03:14:41.626Z,92.10
2018-06-02T03:17:09.953Z,95.22
2018-06-02T03:19:38.971Z,90.78
2018-06-02T03:22:08.522Z,84.43
2018-06-02T03:24:36.771Z,90.80
2018-06-02T03:27:07.679Z,83.78
2018-06-02T03:29:36.704Z,87.15
2018-06-02T03:32:04.985Z,91.30
2018-06-02T03:34:33.276Z,92.60
2018-06-02T03:37:02.868Z,94.90
2018-06-02T03:39:31.124Z,90.20
2018-06-02T03:41:59.459Z,93.18
2018-06-02T03:44:27.739Z,91.78
2018-06-02T03:46:56.753Z,89.25
2018-06-02T03:49:25.950Z,85.90
2018-06-02T03:51:55.796Z,80.10
2018-06-02T03:54:24.064Z,84.13
2018-06-02T03:56:52.373Z,84.57
2018-06-02T03:59:21.876Z,82.70
2018-06-02T04:01:50.228Z,82.35
2018-06-02T04:04:18.518Z,82.47
2018-06-02T04:06:48.077Z,77.37
2018-06-02T04:09:17.929Z,77.22
2018-06-02T04:11:46.214Z,74.07
2018-06-02T04:14:14.486Z,68.15
2018-06-02T04:16:42.879Z,65.62
2018-06-02T04:19:11.157Z,58.00
2018-06-02T04:21:39.476Z,59.53
2018-06-02T04:24:08.661Z,54.55
2018-06-02T04:26:37.865Z,52.92
2018-06-02T04:29:06.154Z,58.85
2018-06-02T04:31:34.392Z,54.95
2018-06-02T04:34:03.564Z,53.85
2018-06-02T04:36:31.832Z,52.05
2018-06-02T04:39:01.554Z,52.80
2018-06-02T04:41:29.886Z,56.37
2018-06-02T04:43:58.128Z,54.38
2018-06-02T04:46:26.385Z,56.33
2018-06-02T04:48:54.686Z,58.63
2018-06-02T04:51:23.722Z,54.83
2018-06-02T04:53:52.775Z,51.22
2018-06-02T04:56:22.755Z,56.20
2018-06-02T04:58:51.035Z,50.65
2018-06-02T05:01:22.342Z,54.08
2018-06-02T05:03:52.666Z,55.35
2018-06-02T05:06:21.653Z,51.47
2018-06-02T05:08:49.976Z,52.62
2018-06-02T05:11:18.283Z,52.22
2018-06-02T05:13:46.569Z,55.40
2018-06-02T05:16:15.637Z,52.28
2018-06-02T05:18:43.899Z,46.60
2018-06-02T05:21:12.212Z,56.35
2018-06-02T05:23:42.466Z,49.97
2018-06-02T05:26:12.363Z,53.22
2018-06-02T05:28:41.529Z,50.15
2018-06-02T05:31:09.771Z,55.45
2018-06-02T05:33:38.081Z,54.20
2018-06-02T05:36:06.357Z,56.22
2018-06-02T05:38:35.420Z,57.78
2018-06-02T05:41:03.703Z,55.17
2018-06-02T05:43:32.024Z,53.55
2018-06-02T05:46:00.369Z,54.87
2018-06-02T05:48:28.570Z,53.65
2018-06-02T05:50:56.835Z,55.70
2018-06-02T05:53:25.221Z,50.80
2018-06-02T05:55:53.483Z,52.95
2018-06-02T05:58:21.776Z,51.33
2018-06-02T06:00:50.865Z,52.17
2018-06-02T06:03:19.236Z,51.37
2018-06-02T06:05:47.496Z,49.17
2018-06-02T06:08:15.801Z,50.45
2018-06-02T06:10:44.815Z,47.60
2018-06-02T06:13:13.159Z,42.85
2018-06-02T06:15:41.417Z,43.75
2018-06-02T06:18:09.684Z,44.45
2018-06-02T06:20:37.996Z,40.10
2018-06-02T06:23:06.273Z,39.40
2018-06-02T06:25:34.640Z,37.42
2018-06-02T06:28:02.881Z,36.10
2018-06-02T06:30:31.191Z,34.70
2018-06-02T06:32:59.542Z,34.75
2018-06-02T06:35:27.715Z,36.85
2018-06-02T06:37:56.040Z,36.15
2018-06-02T06:40:24.379Z,35.92
2018-06-02T06:42:52.652Z,36.92
2018-06-02T06:45:20.910Z,32.85
2018-06-02T06:47:49.229Z,32.53
2018-06-02T06:50:18.435Z,32.38
2018-06-02T06:52:46.729Z,33.20
2018-06-02T06:55:15.019Z,32.28
2018-06-02T06:57:43.342Z,28.60
2018-06-02T07:00:11.592Z,28.55
2018-06-02T07:02:39.840Z,30.77
2018-06-02T07:05:08.884Z,30.42
2018-06-02T07:07:37.128Z,32.88
2018-06-02T07:10:05.447Z,28.23
2018-06-02T07:12:33.700Z,28.77
2018-06-02T07:15:02.005Z,27.25
2018-06-02T07:17:30.251Z,27.50
2018-06-02T07:19:58.557Z,25.48
2018-06-02T07:22:26.927Z,25.37
2018-06-02T07:24:55.251Z,27.02
2018-06-02T07:27:23.500Z,25.27
2018-06-02T07:29:51.923Z,25.80
2018-06-02T07:32:20.176Z,28.35
2018-06-02T07:34:49.255Z,29.17
2018-06-02T07:37:18.277Z,28.80
2018-06-02T07:39:46.563Z,29.17
2018-06-02T07:42:14.860Z,28.33
2018-06-02T07:44:43.110Z,30.27
2018-06-02T07:47:11.418Z,30.42
2018-06-02T07:49:39.692Z,32.35
2018-06-02T07:52:07.976Z,32.00
2018-06-02T07:54:36.258Z,34.83
2018-06-02T07:57:04.591Z,32.65
2018-06-02T07:59:32.883Z,33.83
2018-06-02T08:02:01.187Z,35.67
2018-06-02T08:04:30.496Z,35.83
2018-06-02T08:06:58.759Z,40.25
2018-06-02T08:09:27.055Z,38.25
2018-06-02T08:11:55.415Z,37.13
2018-06-02T08:14:23.702Z,35.45
2018-06-02T08:16:52.757Z,37.05
2018-06-02T08:19:21.142Z,37.38
2018-06-02T08:21:50.329Z,36.80
2018-06-02T08:24:18.638Z,38.78
2018-06-02T08:26:48.192Z,43.10
2018-06-02T08:29:17.218Z,38.25
2018-06-02T08:31:45.618Z,40.00
2018-06-02T08:34:13.936Z,45.75
2018-06-02T08:36:42.995Z,43.78
2018-06-02T08:39:11.982Z,43.45
2018-06-02T08:41:40.252Z,44.38
2018-06-02T08:44:09.700Z,45.55
2018-06-02T08:46:38.724Z,44.47
2018-06-02T08:49:07.002Z,50.85
2018-06-02T08:51:35.300Z,52.17
2018-06-02T08:54:03.556Z,51.42
2018-06-02T08:56:31.929Z,55.10
2018-06-02T08:59:00.195Z,55.15
2018-06-02T09:01:28.502Z,51.05
2018-06-02T09:03:56.751Z,50.22
2018-06-02T09:06:25.044Z,54.42
2018-06-02T09:08:53.301Z,51.08
2018-06-02T09:11:22.489Z,45.72
2018-06-02T09:13:51.366Z,48.00
2018-06-02T09:16:20.440Z,42.17
2018-06-02T09:18:48.714Z,41.60
2018-06-02T09:21:17.030Z,39.10
2018-06-02T09:23:45.301Z,37.13
2018-06-02T09:26:13.600Z,36.00
2018-06-02T09:28:42.681Z,36.40
2018-06-02T09:31:11.737Z,33.60
2018-06-02T09:33:40.010Z,32.65
2018-06-02T09:36:09.043Z,32.83
2018-06-02T09:38:38.076Z,32.25
2018-06-02T09:41:07.458Z,29.98
2018-06-02T09:43:35.758Z,35.40
2018-06-02T09:46:07.743Z,36.45
2018-06-02T09:48:36.911Z,32.78
2018-06-02T09:51:05.231Z,31.52
2018-06-02T09:53:34.244Z,31.75
2018-06-02T09:56:02.636Z,32.03
2018-06-02T09:58:32.188Z,34.78
2018-06-02T10:01:00.532Z,35.50
2018-06-02T10:03:28.770Z,34.42
2018-06-02T10:05:57.909Z,29.57
2018-06-02T10:08:26.210Z,28.95
2018-06-02T10:10:54.526Z,29.17
2018-06-02T10:13:27.319Z,24.20
2018-06-02T10:15:56.366Z,26.02
2018-06-02T10:18:25.849Z,27.77
2018-06-02T10:20:54.257Z,25.62
2018-06-02T10:23:22.556Z,24.35
2018-06-02T10:25:51.717Z,23.48
2018-06-02T10:28:21.118Z,26.70
2018-06-02T10:30:50.158Z,24.13
2018-06-02T10:33:19.222Z,22.23
2018-06-02T10:35:47.504Z,21.02
2018-06-02T10:38:15.805Z,25.12
2018-06-02T10:40:44.125Z,24.25
2018-06-02T10:43:12.404Z,24.33
2018-06-02T10:45:41.272Z,23.30
2018-06-02T10:48:09.535Z,20.30
2018-06-02T10:50:37.832Z,24.27
2018-06-02T10:53:06.110Z,24.20
2018-06-02T10:55:34.434Z,21.65
2018-06-02T10:58:02.809Z,20.70
2018-06-02T11:00:31.171Z,22.80
2018-06-02T11:03:00.282Z,24.12
2018-06-02T11:05:28.575Z,23.27
2018-06-02T11:07:57.655Z,22.85
2018-06-02T11:10:26.711Z,21.73
2018-06-02T11:12:54.982Z,23.37
2018-06-02T11:15:23.292Z,21.05
2018-06-02T11:17:52.088Z,23.15
2018-06-02T11:20:21.170Z,22.37
2018-06-02T11:22:49.443Z,26.48
2018-06-02T11:25:17.740Z,23.25
2018-06-02T11:27:46.028Z,21.58
2018-06-02T11:30:15.069Z,29.17
2018-06-02T11:32:43.359Z,21.12
2018-06-02T11:35:11.677Z,22.15
2018-06-02T11:37:40.737Z,20.12
2018-06-02T11:40:09.121Z,23.58
2018-06-02T11:42:37.505Z,22.30
2018-06-02T11:45:07.056Z,21.73
2018-06-02T11:47:36.524Z,20.70
2018-06-02T11:50:04.837Z,16.75
2018-06-02T11:52:33.838Z,16.65
2018-06-02T11:55:02.472Z,15.93
2018-06-02T11:57:30.776Z,20.80
2018-06-02T11:59:59.047Z,18.98
2018-06-02T12:02:28.452Z,17.80
2018-06-02T12:04:57.491Z,18.55
2018-06-02T12:07:25.777Z,19.58
2018-06-02T12:09:54.024Z,21.30
2018-06-02T12:12:22.459Z,20.33
2018-06-02T12:14:51.477Z,21.37
2018-06-02T12:17:19.831Z,20.17
2018-06-02T12:19:48.085Z,20.50
2018-06-02T12:22:16.464Z,20.23
2018-06-02T12:24:48.590Z,20.45
2018-06-02T12:27:16.841Z,22.33
2018-06-02T12:29:45.915Z,21.48
2018-06-02T12:32:14.202Z,20.15
2018-06-02T12:34:43.366Z,21.27
2018-06-02T12:37:11.640Z,20.55
2018-06-02T12:39:41.893Z,19.17
2018-06-02T12:42:10.180Z,20.25
2018-06-02T12:44:38.536Z,19.08
2018-06-02T12:47:06.835Z,19.08
2018-06-02T12:49:35.896Z,19.85
2018-06-02T12:52:04.214Z,18.73
2018-06-02T12:54:33.254Z,19.33
2018-06-02T12:57:01.541Z,19.12
2018-06-02T12:59:30.645Z,18.77
2018-06-02T13:01:58.960Z,19.80
2018-06-02T13:04:28.023Z,19.55
2018-06-02T13:06:56.301Z,18.25
2018-06-02T13:09:25.348Z,19.37
2018-06-02T13:11:54.385Z,20.05
2018-06-02T13:14:23.023Z,21.25
2018-06-02T13:16:51.265Z,21.27
2018-06-02T13:19:20.359Z,20.40
2018-06-02T13:21:48.691Z,20.90
2018-06-02T13:24:17.915Z,23.27
2018-06-02T13:26:46.223Z,20.77
2018-06-02T13:29:15.313Z,20.77
2018-06-02T13:31:44.472Z,19.25
2018-06-02T13:34:12.793Z,19.98
2018-06-02T13:36:41.822Z,18.90
2018-06-02T13:39:10.128Z,17.95
2018-06-02T13:41:38.397Z,19.55
2018-06-02T13:44:06.721Z,19.10
2018-06-02T13:46:35.732Z,19.27
2018-06-02T13:49:04.079Z,18.80
2018-06-02T13:51:32.354Z,17.12
2018-06-02T13:54:01.427Z,19.27
2018-06-02T13:56:29.812Z,18.17
2018-06-02T13:58:58.971Z,15.57
2018-06-02T14:01:27.273Z,16.70
2018-06-02T14:03:56.413Z,17.48
2018-06-02T14:06:24.764Z,17.77
2018-06-02T14:08:53.393Z,17.70
2018-06-02T14:11:21.702Z,17.60
2018-06-02T14:13:50.023Z,18.70
2018-06-02T14:16:19.987Z,15.10
2018-06-02T14:18:49.548Z,15.63
2018-06-02T14:21:17.778Z,16.45
2018-06-02T14:23:46.121Z,16.27
2018-06-02T14:26:14.389Z,16.15
2018-06-02T14:28:42.702Z,15.43
2018-06-02T14:31:11.018Z,15.35
2018-06-02T14:33:40.444Z,17.52
2018-06-02T14:36:09.499Z,16.65
2018-06-02T14:38:37.778Z,16.42
2018-06-02T14:41:06.856Z,17.52
2018-06-02T14:43:35.338Z,18.60
2018-06-02T14:46:03.628Z,19.90
2018-06-02T14:48:32.025Z,20.15
2018-06-02T14:51:00.386Z,19.90
2018-06-02T14:53:29.540Z,22.17
2018-06-02T14:55:57.813Z,20.83
2018-06-02T14:58:26.065Z,19.58
2018-06-02T15:00:55.127Z,18.73
2018-06-02T15:03:24.165Z,20.23
2018-06-02T15:05:53.617Z,21.33
2018-06-02T15:08:21.860Z,19.73
2018-06-02T15:10:50.148Z,25.58
2018-06-02T15:13:18.471Z,23.60
2018-06-02T15:15:46.763Z,20.70
2018-06-02T15:18:15.858Z,21.95
2018-06-02T15:20:44.865Z,22.35
2018-06-02T15:23:13.253Z,22.25
2018-06-02T15:25:42.341Z,23.77
2018-06-02T15:28:11.337Z,22.65
2018-06-02T15:30:39.590Z,24.30
2018-06-02T15:33:08.733Z,26.48
2018-06-02T15:35:38.261Z,27.30
2018-06-02T15:38:06.533Z,31.00
2018-06-02T15:40:34.908Z,34.83
2018-06-02T15:43:03.229Z,31.83
2018-06-02T15:45:32.300Z,34.70
2018-06-02T15:48:01.728Z,35.33
2018-06-02T15:50:30.904Z,31.73
2018-06-02T15:53:00.142Z,31.92
2018-06-02T15:55:28.453Z,30.65
2018-06-02T15:57:56.747Z,32.42
2018-06-02T16:00:25.047Z,29.60
2018-06-02T16:02:54.092Z,28.80
2018-06-02T16:05:22.401Z,29.08
2018-06-02T16:07:52.207Z,30.30
2018-06-02T16:10:20.506Z,28.30
2018-06-02T16:12:49.405Z,30.42
2018-06-02T16:15:18.461Z,31.02
2018-06-02T16:17:46.765Z,29.63
2018-06-02T16:20:17.300Z,27.73
2018-06-02T16:22:45.653Z,29.80
2018-06-02T16:25:13.970Z,34.33
2018-06-02T16:27:43.044Z,29.15
2018-06-02T16:30:13.038Z,35.38
2018-06-02T16:32:42.069Z,29.40
2018-06-02T16:35:11.079Z,32.78
2018-06-02T16:37:39.383Z,32.15
2018-06-02T16:40:08.586Z,34.65
2018-06-02T16:42:36.836Z,32.93
2018-06-02T16:45:05.138Z,31.30
2018-06-02T16:47:34.066Z,37.63
2018-06-02T16:50:02.341Z,35.20
2018-06-02T16:52:30.617Z,38.22
2018-06-02T16:54:59.673Z,40.03
2018-06-02T16:57:28.758Z,40.08
2018-06-02T16:59:57.926Z,41.65
2018-06-02T17:02:27.053Z,43.17
2018-06-02T17:04:55.330Z,42.30
2018-06-02T17:07:23.634Z,42.40
2018-06-02T17:09:51.898Z,44.40
2018-06-02T17:12:20.163Z,42.85
2018-06-02T17:14:48.450Z,40.67
2018-06-02T17:17:16.732Z,38.75
2018-06-02T17:19:46.365Z,45.17
2018-06-02T17:22:16.297Z,42.08
2018-06-02T17:24:45.470Z,42.38
2018-06-02T17:27:13.746Z,42.85
2018-06-02T17:29:42.058Z,49.53
2018-06-02T17:32:11.445Z,44.28
2018-06-02T17:34:39.762Z,46.37
2018-06-02T17:37:08.064Z,46.03
2018-06-02T17:39:36.355Z,44.25
2018-06-02T17:42:04.633Z,47.15
2018-06-02T17:44:32.918Z,49.13
2018-06-02T17:47:08.887Z,45.47
2018-06-02T17:49:37.170Z,47.22
2018-06-02T17:52:06.228Z,50.92
2018-06-02T17:54:34.476Z,46.42
2018-06-02T17:57:02.773Z,47.47
2018-06-02T17:59:31.859Z,48.30
2018-06-02T18:02:00.128Z,45.65
2018-06-02T18:04:28.397Z,49.08
2018-06-02T18:06:57.562Z,49.60
2018-06-02T18:09:26.584Z,46.20
2018-06-02T18:11:54.900Z,46.70
2018-06-02T18:14:24.368Z,45.17
2018-06-02T18:16:52.710Z,46.33
2018-06-02T18:19:22.153Z,45.25
2018-06-02T18:21:50.832Z,46.17
2018-06-02T18:24:19.101Z,49.08
2018-06-02T18:26:47.413Z,46.85
2018-06-02T18:29:15.732Z,44.47
2018-06-02T18:31:44.009Z,44.70
2018-06-02T18:34:12.362Z,47.60
2018-06-02T18:36:40.650Z,43.72
2018-06-02T18:39:09.698Z,45.17
2018-06-02T18:41:38.093Z,43.85
2018-06-02T18:44:06.389Z,41.63
2018-06-02T18:46:34.690Z,44.45
2018-06-02T18:49:03.876Z,42.05
2018-06-02T18:51:32.193Z,45.28
2018-06-02T18:54:00.464Z,43.55
2018-06-02T18:56:28.783Z,42.80
2018-06-02T18:58:58.284Z,42.35
2018-06-02T19:01:28.554Z,43.08
2018-06-02T19:03:58.594Z,48.80
2018-06-02T19:06:26.902Z,45.60
2018-06-02T19:08:55.211Z,48.83
2018-06-02T19:11:24.285Z,63.15
2018-06-02T19:13:52.616Z,65.15
2018-06-02T19:16:20.936Z,78.05
2018-06-02T19:18:49.249Z,73.18
2018-06-02T19:21:17.542Z,73.93
2018-06-02T19:23:45.847Z,71.30
2018-06-02T19:26:14.131Z,83.43
2018-06-02T19:28:42.518Z,76.68
2018-06-02T19:31:10.786Z,89.47
2018-06-02T19:33:39.116Z,84.65
2018-06-02T19:36:07.458Z,87.03
2018-06-02T19:38:35.763Z,80.22
2018-06-02T19:41:04.834Z,94.80
2018-06-02T19:43:33.169Z,95.47
2018-06-02T19:46:01.463Z,103.90
2018-06-02T19:48:30.222Z,100.40
2018-06-02T19:50:58.593Z,112.03
2018-06-02T19:53:27.856Z,95.30
2018-06-02T19:55:57.136Z,117.43
2018-06-02T19:58:25.425Z,107.87
2018-06-02T20:00:53.709Z,82.80
2018-06-02T20:03:22.806Z,84.57
2018-06-02T20:05:51.889Z,91.37
2018-06-02T20:08:20.181Z,98.70
2018-06-02T20:10:48.472Z,81.45
2018-06-02T20:13:16.799Z,97.10
2018-06-02T20:15:46.240Z,75.37
2018-06-02T20:18:14.533Z,83.10
2018-06-02T20:20:43.595Z,92.40
2018-06-02T20:23:11.945Z,96.25
2018-06-02T20:25:40.206Z,72.78
2018-06-02T20:28:08.514Z,77.87
2018-06-02T20:30:36.770Z,76.57
2018-06-02T20:33:05.132Z,85.05
2018-06-02T20:35:33.403Z,70.32
2018-06-02T20:38:01.699Z,78.87
2018-06-02T20:40:29.996Z,78.18
2018-06-02T20:42:58.337Z,87.37
2018-06-02T20:45:26.589Z,64.65
2018-06-02T20:47:55.713Z,84.07
2018-06-02T20:50:24.135Z,88.00
2018-06-02T20:52:52.408Z,65.35
2018-06-02T20:55:20.775Z,79.82
2018-06-02T20:57:49.092Z,78.93
2018-06-02T21:00:18.172Z,73.43
2018-06-02T21:02:46.960Z,80.80
2018-06-02T21:05:15.246Z,90.28
2018-06-02T21:07:44.361Z,86.63
2018-06-02T21:10:12.633Z,92.80
2018-06-02T21:12:40.921Z,106.18
2018-06-02T21:15:09.188Z,107.12
2018-06-02T21:17:37.635Z,127.97
2018-06-02T21:20:07.204Z,95.38
2018-06-02T21:22:35.561Z,93.78
2018-06-02T21:25:04.695Z,91.72
2018-06-02T21:27:32.982Z,79.78
2018-06-02T21:30:02.024Z,101.47
2018-06-02T21:32:30.349Z,99.60
2018-06-02T21:34:58.635Z,81.50
2018-06-02T21:37:26.936Z,94.68
2018-06-02T21:39:55.955Z,77.47
2018-06-02T21:42:24.246Z,96.60
2018-06-02T21:44:52.501Z,72.18
2018-06-02T21:47:20.834Z,81.03
2018-06-02T21:49:49.079Z,90.43
2018-06-02T21:52:17.419Z,77.60
2018-06-02T21:54:45.680Z,102.35
2018-06-02T21:57:13.948Z,112.22
2018-06-02T21:59:43.012Z,98.97
2018-06-02T22:02:11.357Z,139.30
2018-06-02T22:04:40.913Z,94.22
2018-06-02T22:07:09.305Z,93.00
2018-06-02T22:09:41.355Z,126.47
2018-06-02T22:12:10.246Z,99.57
2018-06-02T22:14:39.676Z,109.97
2018-06-02T22:17:07.971Z,96.28
2018-06-02T22:19:36.312Z,104.32
2018-06-02T22:22:04.616Z,89.18
2018-06-02T22:24:33.652Z,109.30
2018-06-02T22:27:01.953Z,103.62
2018-06-02T22:29:31.776Z,95.45
2018-06-02T22:32:00.061Z,97.03
2018-06-02T22:34:28.346Z,101.60
2018-06-02T22:36:57.453Z,96.55
2018-06-02T22:39:26.519Z,110.80
2018-06-02T22:41:54.888Z,83.95
2018-06-02T22:44:23.142Z,76.65
2018-06-02T22:46:51.455Z,102.35
2018-06-02T22:49:20.515Z,98.00
2018-06-02T22:51:57.729Z,91.93
2018-06-02T22:54:26.776Z,103.28
2018-06-02T22:56:55.231Z,86.70
2018-06-02T22:59:24.319Z,87.32
2018-06-02T23:01:53.349Z,86.45
2018-06-02T23:04:22.170Z,108.07
2018-06-02T23:06:50.502Z,89.68
2018-06-02T23:09:20.214Z,77.15
2018-06-02T23:11:48.297Z,109.53
2018-06-02T23:14:17.109Z,93.00
2018-06-02T23:16:45.205Z,132.07
2018-06-02T23:19:13.354Z,97.37
2018-06-02T23:21:41.426Z,101.23
2018-06-02T23:24:09.483Z,135.23
2018-06-02T23:26:37.557Z,126.60
2018-06-02T23:29:05.620Z,133.80
2018-06-02T23:31:34.429Z,158.02
2018-06-02T23:34:02.459Z,136.05
2018-06-02T23:36:31.274Z,165.23
2018-06-02T23:38:59.368Z,172.65
2018-06-02T23:41:27.419Z,168.45
2018-06-02T23:43:55.474Z,180.05
2018-06-02T23:46:23.488Z,185.65
2018-06-02T23:48:51.542Z,194.73
2018-06-02T23:51:19.593Z,147.57
2018-06-02T23:53:47.650Z,215.98
2018-06-02T23:56:16.493Z,209.37
2018-06-02T23:58:44.721Z,181.80
